Time,TemperatureF,DewpointF,PressureIn,WindDirection,WindDirectionDegrees,WindSpeedMPH,WindSpeedGustMPH,Humidity,HourlyPrecipIn,Conditions,Clouds,dailyrainin,SolarRadiationWatts/m^2,SoftwareType,DateUTC
2013-04-28 00:00:00,51.1,38.5,30.01,WSW,251,9.0,9.0,62,0.00,,,0.00,0,Wunderground v.1.15,2013-04-28 07:00:00,
2013-04-28 00:05:00,51.1,38.9,30.01,WSW,255,15.0,15.0,63,0.00,,,0.00,0,Wunderground v.1.15,2013-04-28 07:05:00,
2013-04-28 00:10:00,51.0,38.8,30.01,WSW,252,8.0,8.0,63,0.00,,,0.00,0,Wunderground v.1.15,2013-04-28 07:10:00,
2013-04-28 00:20:00,50.6,38.5,30.01,WSW,245,13.0,13.0,63,0.00,,,0.00,0,Wunderground v.1.15,2013-04-28 07:20:00,
2013-04-28 00:30:00,50.6,38.5,30.01,WSW,258,15.0,15.0,63,0.00,,,0.00,0,Wunderground v.1.15,2013-04-28 07:30:00,
2013-04-28 00:40:00,50.2,38.1,30.01,SW,230,8.0,8.0,63,0.00,,,0.00,0,Wunderground v.1.15,2013-04-28 07:40:00,
2013-04-28 00:50:00,49.9,37.8,30.01,WNW,286,8.0,8.0,63,0.00,,,0.00,0,Wunderground v.1.15,2013-04-28 07:50:00,
2013-04-28 01:00:00,49.5,37.8,30.01,SSW,200,8.0,8.0,64,0.00,,,0.00,0,Wunderground v.1.15,2013-04-28 08:00:00,
2013-04-28 01:10:00,49.3,38.0,30.01,WSW,248,4.0,4.0,65,0.00,,,0.00,0,Wunderground v.1.15,2013-04-28 08:10:00,
2013-04-28 01:20:00,49.1,38.2,30.00,SSW,204,4.0,4.0,66,0.00,,,0.00,0,Wunderground v.1.15,2013-04-28 08:20:00,
2013-04-28 01:30:00,49.0,38.1,30.00,WSW,243,5.0,5.0,66,0.00,,,0.00,0,Wunderground v.1.15,2013-04-28 08:30:00,
2013-04-28 01:41:00,48.7,38.2,30.01,WSW,249,4.0,4.0,67,0.00,,,0.00,0,Wunderground v.1.15,2013-04-28 08:41:00,
2013-04-28 01:50:00,48.7,37.8,30.01,NNE,26,7.0,8.0,66,0.00,,,0.00,0,Wunderground v.1.15,2013-04-28 08:50:00,
2013-04-28 02:00:00,48.6,37.4,30.01,South,189,4.0,4.0,65,0.00,,,0.00,0,Wunderground v.1.15,2013-04-28 09:00:00,
2013-04-28 02:10:00,48.6,36.2,30.01,WNW,287,7.0,7.0,62,0.00,,,0.00,0,Wunderground v.1.15,2013-04-28 09:10:00,
2013-04-28 02:20:00,49.1,35.8,30.02,East,99,4.0,4.0,60,0.00,,,0.00,0,Wunderground v.1.15,2013-04-28 09:20:00,
2013-04-28 02:30:00,49.1,36.2,30.02,WSW,237,3.0,4.0,61,0.00,,,0.00,0,Wunderground v.1.15,2013-04-28 09:30:00,
2013-04-28 02:40:00,49.0,36.1,30.02,WSW,241,6.0,6.0,61,0.00,,,0.00,0,Wunderground v.1.15,2013-04-28 09:40:00,
2013-04-28 02:50:00,48.8,35.9,30.02,SSW,206,7.0,7.0,61,0.00,,,0.00,0,Wunderground v.1.15,2013-04-28 09:50:00,
2013-04-28 03:00:00,48.4,36.0,30.02,NW,309,5.0,5.0,62,0.00,,,0.00,0,Wunderground v.1.15,2013-04-28 10:00:00,
2013-04-28 03:05:00,48.2,35.8,30.02,NNW,340,4.0,5.0,62,0.00,,,0.00,0,Wunderground v.1.15,2013-04-28 10:05:00,
2013-04-28 03:10:00,48.1,36.1,30.02,SSW,200,5.0,5.0,63,0.00,,,0.00,0,Wunderground v.1.15,2013-04-28 10:10:00,
2013-04-28 03:20:00,48.2,35.8,30.02,NW,322,3.0,4.0,62,0.00,,,0.00,0,Wunderground v.1.15,2013-04-28 10:20:00,
2013-04-28 03:30:00,48.2,36.2,30.02,West,270,2.0,4.0,63,0.00,,,0.00,0,Wunderground v.1.15,2013-04-28 10:30:00,
2013-04-28 03:40:00,48.1,36.5,30.02,NW,319,3.0,4.0,64,0.00,,,0.00,0,Wunderground v.1.15,2013-04-28 10:40:00,
2013-04-28 03:50:00,48.0,36.4,30.02,WNW,297,2.0,4.0,64,0.00,,,0.00,0,Wunderground v.1.15,2013-04-28 10:50:00,
2013-04-28 04:00:00,48.0,36.8,30.03,NNW,343,2.0,4.0,65,0.00,,,0.00,0,Wunderground v.1.15,2013-04-28 11:00:00,
2013-04-28 04:05:00,47.9,36.7,30.02,NNW,342,3.0,4.0,65,0.00,,,0.00,0,Wunderground v.1.15,2013-04-28 11:05:00,
2013-04-28 04:10:00,47.9,36.7,30.02,NW,323,1.0,4.0,65,0.00,,,0.00,0,Wunderground v.1.15,2013-04-28 11:10:00,
2013-04-28 04:20:00,47.9,36.7,30.02,NW,326,3.0,4.0,65,0.00,,,0.00,0,Wunderground v.1.15,2013-04-28 11:20:00,
2013-04-28 04:30:00,48.3,37.1,30.02,NW,321,2.0,4.0,65,0.00,,,0.00,0,Wunderground v.1.15,2013-04-28 11:30:00,
2013-04-28 04:40:00,48.8,37.2,30.02,NW,315,2.0,4.0,64,0.00,,,0.00,0,Wunderground v.1.15,2013-04-28 11:40:00,
2013-04-28 04:50:00,49.2,37.1,30.02,West,272,3.0,4.0,63,0.00,,,0.00,0,Wunderground v.1.15,2013-04-28 11:50:00,
2013-04-28 05:00:00,49.3,36.4,30.02,NW,321,5.0,5.0,61,0.00,,,0.00,0,Wunderground v.1.15,2013-04-28 12:00:00,
2013-04-28 05:05:00,49.1,36.2,30.01,NW,307,2.0,5.0,61,0.00,,,0.00,0,Wunderground v.1.15,2013-04-28 12:05:00,
2013-04-28 05:10:00,49.1,36.2,30.01,West,268,2.0,4.0,61,0.00,,,0.00,0,Wunderground v.1.15,2013-04-28 12:10:00,
2013-04-28 05:20:00,48.7,36.7,30.01,West,280,5.0,5.0,63,0.00,,,0.00,0,Wunderground v.1.15,2013-04-28 12:20:00,
2013-04-28 05:30:00,48.2,36.6,30.01,West,267,0.0,4.0,64,0.00,,,0.00,0,Wunderground v.1.15,2013-04-28 12:30:00,
2013-04-28 05:40:00,47.7,36.9,30.01,West,274,0.0,4.0,66,0.00,,,0.00,0,Wunderground v.1.15,2013-04-28 12:40:00,
2013-04-28 05:50:00,47.7,37.7,30.01,NW,313,3.0,4.0,68,0.00,,,0.00,0,Wunderground v.1.15,2013-04-28 12:50:00,
2013-04-28 06:00:00,47.6,38.7,30.01,NNW,341,5.0,5.0,71,0.00,,,0.00,0,Wunderground v.1.15,2013-04-28 13:00:00,
2013-04-28 06:05:00,47.6,39.4,30.01,NW,311,1.0,5.0,73,0.00,,,0.00,0,Wunderground v.1.15,2013-04-28 13:05:00,
2013-04-28 06:10:00,47.8,39.6,30.01,West,275,2.0,4.0,73,0.00,,,0.00,0,Wunderground v.1.15,2013-04-28 13:10:00,
2013-04-28 06:20:00,48.0,39.8,30.02,NNW,334,4.0,4.0,73,0.00,,,0.00,0,Wunderground v.1.15,2013-04-28 13:20:00,
2013-04-28 06:30:00,48.0,39.8,30.02,NW,322,2.0,4.0,73,0.00,,,0.00,0,Wunderground v.1.15,2013-04-28 13:30:00,
2013-04-28 06:40:00,48.0,39.8,30.02,WNW,300,3.0,4.0,73,0.00,,,0.00,0,Wunderground v.1.15,2013-04-28 13:40:00,
2013-04-28 06:50:00,48.2,39.9,30.02,NW,320,4.0,4.0,73,0.00,,,0.00,0,Wunderground v.1.15,2013-04-28 13:50:00,
2013-04-28 07:00:00,48.2,40.3,30.02,WSW,253,9.0,9.0,74,0.00,,,0.00,0,Wunderground v.1.15,2013-04-28 14:00:00,
2013-04-28 07:05:00,48.1,40.5,30.02,SW,220,3.0,9.0,75,0.00,,,0.00,0,Wunderground v.1.15,2013-04-28 14:05:00,
2013-04-28 07:10:00,48.2,40.6,30.02,WSW,249,5.0,5.0,75,0.00,,,0.00,0,Wunderground v.1.15,2013-04-28 14:10:00,
2013-04-28 07:20:00,48.6,41.4,30.02,WSW,243,6.0,6.0,76,0.00,,,0.00,0,Wunderground v.1.15,2013-04-28 14:20:00,
2013-04-28 07:30:00,48.9,41.7,30.03,South,184,3.0,4.0,76,0.00,,,0.00,0,Wunderground v.1.15,2013-04-28 14:30:00,
2013-04-28 07:40:00,49.4,42.1,30.03,WNW,303,4.0,4.0,76,0.00,,,0.00,0,Wunderground v.1.15,2013-04-28 14:40:00,
2013-04-28 07:50:00,49.6,42.3,30.03,West,277,10.0,10.0,76,0.00,,,0.00,0,Wunderground v.1.15,2013-04-28 14:50:00,
2013-04-28 08:00:00,49.5,42.6,30.03,West,259,14.0,14.0,77,0.00,,,0.00,0,Wunderground v.1.15,2013-04-28 15:00:00,
2013-04-28 08:10:00,49.8,42.9,30.03,SW,218,7.0,7.0,77,0.00,,,0.00,0,Wunderground v.1.15,2013-04-28 15:10:00,
2013-04-28 08:20:00,49.8,42.9,30.04,WSW,253,12.0,12.0,77,0.00,,,0.00,0,Wunderground v.1.15,2013-04-28 15:20:00,
2013-04-28 08:30:00,50.3,43.0,30.04,West,268,13.0,13.0,76,0.00,,,0.00,0,Wunderground v.1.15,2013-04-28 15:30:00,
2013-04-28 08:40:00,50.2,42.9,30.03,ENE,72,5.0,5.0,76,0.00,,,0.00,0,Wunderground v.1.15,2013-04-28 15:40:00,
2013-04-28 08:50:00,50.3,43.0,30.04,SW,232,4.0,4.0,76,0.00,,,0.00,0,Wunderground v.1.15,2013-04-28 15:50:00,
2013-04-28 09:00:00,50.6,42.6,30.04,WSW,249,5.0,5.0,74,0.00,,,0.00,0,Wunderground v.1.15,2013-04-28 16:00:00,
2013-04-28 09:05:00,51.0,43.0,30.05,WSW,244,9.0,9.0,74,0.00,,,0.00,0,Wunderground v.1.15,2013-04-28 16:05:00,
2013-04-28 09:10:00,50.7,42.4,30.05,West,262,19.0,19.0,73,0.00,,,0.00,0,Wunderground v.1.15,2013-04-28 16:10:00,
2013-04-28 09:20:00,50.2,42.6,30.05,West,262,15.0,15.0,75,0.00,,,0.00,0,Wunderground v.1.15,2013-04-28 16:20:00,
2013-04-28 09:30:00,50.2,42.6,30.05,West,260,18.0,18.0,75,0.00,,,0.00,0,Wunderground v.1.15,2013-04-28 16:30:00,
2013-04-28 09:40:00,50.0,42.4,30.05,WSW,247,13.0,13.0,75,0.00,,,0.00,0,Wunderground v.1.15,2013-04-28 16:40:00,
2013-04-28 09:50:00,51.1,42.4,30.05,WSW,241,16.0,16.0,72,0.00,,,0.00,0,Wunderground v.1.15,2013-04-28 16:50:00,
2013-04-28 10:00:00,51.6,41.8,30.05,SW,225,6.0,6.0,69,0.00,,,0.00,0,Wunderground v.1.15,2013-04-28 17:00:00,
2013-04-28 10:05:00,51.1,40.5,30.05,SSW,196,5.0,6.0,67,0.00,,,0.00,0,Wunderground v.1.15,2013-04-28 17:05:00,
2013-04-28 10:15:00,51.9,41.3,30.05,WSW,245,9.0,15.0,67,0.00,,,0.00,0,Wunderground v.1.15,2013-04-28 17:15:00,
2013-04-28 10:20:00,51.7,40.3,30.05,WSW,252,20.0,20.0,65,0.00,,,0.00,0,Wunderground v.1.15,2013-04-28 17:20:00,
2013-04-28 10:30:00,52.1,40.3,30.06,WSW,241,10.0,10.0,64,0.00,,,0.00,0,Wunderground v.1.15,2013-04-28 17:30:00,
2013-04-28 10:40:00,52.2,40.0,30.06,WSW,238,19.0,19.0,63,0.00,,,0.00,0,Wunderground v.1.15,2013-04-28 17:40:00,
2013-04-28 10:50:00,52.1,39.1,30.06,WSW,254,9.0,9.0,61,0.00,,,0.00,0,Wunderground v.1.15,2013-04-28 17:50:00,
2013-04-28 11:00:00,52.9,39.8,30.05,WSW,246,16.0,16.0,61,0.00,,,0.00,0,Wunderground v.1.15,2013-04-28 18:00:00,
2013-04-28 11:05:00,52.6,39.5,30.05,WSW,258,12.0,16.0,61,0.00,,,0.00,0,Wunderground v.1.15,2013-04-28 18:05:00,
2013-04-28 11:15:00,53.6,40.5,30.05,WSW,242,12.0,17.0,61,0.00,,,0.00,0,Wunderground v.1.15,2013-04-28 18:15:00,
2013-04-28 11:20:00,53.5,40.8,30.05,WSW,241,14.0,14.0,62,0.00,,,0.00,0,Wunderground v.1.15,2013-04-28 18:20:00,
2013-04-28 11:30:00,52.9,39.0,30.05,WSW,258,13.0,13.0,59,0.00,,,0.00,0,Wunderground v.1.15,2013-04-28 18:30:00,
2013-04-28 11:40:00,53.6,39.6,30.05,WSW,241,20.0,20.0,59,0.00,,,0.00,0,Wunderground v.1.15,2013-04-28 18:40:00,
2013-04-28 11:50:00,54.0,38.6,30.05,SW,229,16.0,16.0,56,0.00,,,0.00,0,Wunderground v.1.15,2013-04-28 18:50:00,
2013-04-28 12:00:00,54.4,39.0,30.05,SW,233,16.0,16.0,56,0.00,,,0.00,0,Wunderground v.1.15,2013-04-28 19:00:00,
2013-04-28 12:05:00,54.3,38.9,30.05,WSW,251,17.0,17.0,56,0.00,,,0.00,0,Wunderground v.1.15,2013-04-28 19:05:00,
2013-04-28 12:15:00,55.0,40.0,30.04,WSW,255,18.0,18.0,57,0.00,,,0.00,0,Wunderground v.1.15,2013-04-28 19:15:00,
2013-04-28 12:20:00,54.6,38.7,30.04,SW,234,13.0,13.0,55,0.00,,,0.00,0,Wunderground v.1.15,2013-04-28 19:20:00,
2013-04-28 12:30:00,55.3,39.4,30.04,SW,229,19.0,19.0,55,0.00,,,0.00,0,Wunderground v.1.15,2013-04-28 19:30:00,
2013-04-28 12:40:00,55.5,39.1,30.04,WSW,244,17.0,17.0,54,0.00,,,0.00,0,Wunderground v.1.15,2013-04-28 19:40:00,
2013-04-28 12:50:00,55.3,38.4,30.04,WSW,255,11.0,11.0,53,0.00,,,0.00,0,Wunderground v.1.15,2013-04-28 19:50:00,
2013-04-28 13:00:00,55.6,38.7,30.03,WSW,251,10.0,10.0,53,0.00,,,0.00,0,Wunderground v.1.15,2013-04-28 20:00:00,
2013-04-28 13:05:00,56.3,38.9,30.04,WSW,249,19.0,19.0,52,0.00,,,0.00,0,Wunderground v.1.15,2013-04-28 20:05:00,
2013-04-28 13:10:00,56.1,39.2,30.04,West,265,10.0,10.0,53,0.00,,,0.00,0,Wunderground v.1.15,2013-04-28 20:10:00,
2013-04-28 13:20:00,56.2,37.8,30.03,WSW,253,23.0,23.0,50,0.00,,,0.00,0,Wunderground v.1.15,2013-04-28 20:20:00,
2013-04-28 13:30:00,56.6,38.7,30.03,SW,236,7.0,7.0,51,0.00,,,0.00,0,Wunderground v.1.15,2013-04-28 20:30:00,
2013-04-28 13:40:00,56.7,38.3,30.03,WSW,256,17.0,17.0,50,0.00,,,0.00,0,Wunderground v.1.15,2013-04-28 20:40:00,
2013-04-28 13:50:00,57.3,38.8,30.02,WSW,242,9.0,9.0,50,0.00,,,0.00,0,Wunderground v.1.15,2013-04-28 20:50:00,
2013-04-28 14:00:00,57.5,38.5,30.02,WNW,284,11.0,11.0,49,0.00,,,0.00,0,Wunderground v.1.15,2013-04-28 21:00:00,
2013-04-28 14:05:00,57.6,38.6,30.02,WSW,248,12.0,12.0,49,0.00,,,0.00,0,Wunderground v.1.15,2013-04-28 21:05:00,
2013-04-28 14:10:00,57.7,38.7,30.02,WSW,249,17.0,17.0,49,0.00,,,0.00,0,Wunderground v.1.15,2013-04-28 21:10:00,
2013-04-28 14:20:00,57.8,38.8,30.01,WSW,258,16.0,16.0,49,0.00,,,0.00,0,Wunderground v.1.15,2013-04-28 21:20:00,
2013-04-28 14:30:00,57.6,37.5,30.00,WSW,244,13.0,13.0,47,0.00,,,0.00,0,Wunderground v.1.15,2013-04-28 21:30:00,
2013-04-28 14:40:00,58.2,37.5,30.00,North,350,3.0,4.0,46,0.00,,,0.00,0,Wunderground v.1.15,2013-04-28 21:40:00,
2013-04-28 14:50:00,58.4,36.6,30.00,WSW,258,13.0,13.0,44,0.00,,,0.00,0,Wunderground v.1.15,2013-04-28 21:50:00,
2013-04-28 15:00:00,59.3,37.4,29.99,WNW,294,9.0,9.0,44,0.00,,,0.00,0,Wunderground v.1.15,2013-04-28 22:00:00,
2013-04-28 15:05:00,59.3,36.8,29.99,WSW,250,7.0,9.0,43,0.00,,,0.00,0,Wunderground v.1.15,2013-04-28 22:05:00,
2013-04-28 15:15:00,59.8,37.2,29.99,WSW,254,26.0,26.0,43,0.00,,,0.00,0,Wunderground v.1.15,2013-04-28 22:15:00,
2013-04-28 15:20:00,59.4,37.5,29.99,WSW,241,18.0,18.0,44,0.00,,,0.00,0,Wunderground v.1.15,2013-04-28 22:20:00,
2013-04-28 15:30:00,59.3,37.4,29.99,SW,235,26.0,26.0,44,0.00,,,0.00,0,Wunderground v.1.15,2013-04-28 22:30:00,
2013-04-28 15:40:00,59.3,36.8,29.98,SW,229,14.0,14.0,43,0.00,,,0.00,0,Wunderground v.1.15,2013-04-28 22:40:00,
2013-04-28 15:50:00,59.2,37.3,29.98,WSW,255,14.0,14.0,44,0.00,,,0.00,0,Wunderground v.1.15,2013-04-28 22:50:00,
2013-04-28 16:00:00,59.4,37.5,29.98,WSW,246,24.0,24.0,44,0.00,,,0.00,0,Wunderground v.1.15,2013-04-28 23:00:00,
2013-04-28 16:05:00,59.1,37.8,29.98,South,169,6.0,24.0,45,0.00,,,0.00,0,Wunderground v.1.15,2013-04-28 23:05:00,
2013-04-28 16:10:00,59.0,37.7,29.97,WSW,237,10.0,10.0,45,0.00,,,0.00,0,Wunderground v.1.15,2013-04-28 23:10:00,
2013-04-28 16:20:00,59.2,38.4,29.98,WSW,250,16.0,16.0,46,0.00,,,0.00,0,Wunderground v.1.15,2013-04-28 23:20:00,
2013-04-28 16:30:00,59.3,37.4,29.97,SW,231,17.0,17.0,44,0.00,,,0.00,0,Wunderground v.1.15,2013-04-28 23:30:00,
2013-04-28 16:40:00,59.3,37.9,29.97,WSW,242,27.0,27.0,45,0.00,,,0.00,0,Wunderground v.1.15,2013-04-28 23:40:00,
2013-04-28 16:50:00,59.6,37.6,29.97,SW,233,12.0,12.0,44,0.00,,,0.00,0,Wunderground v.1.15,2013-04-28 23:50:00,
2013-04-28 17:00:00,58.9,38.1,29.97,WSW,250,28.0,28.0,46,0.00,,,0.00,0,Wunderground v.1.15,2013-04-29 00:00:00,
2013-04-28 17:10:00,58.8,38.1,29.97,WSW,246,21.0,21.0,46,0.00,,,0.00,0,Wunderground v.1.15,2013-04-29 00:10:00,
2013-04-28 17:20:00,58.9,38.7,29.97,WSW,257,22.0,22.0,47,0.00,,,0.00,0,Wunderground v.1.15,2013-04-29 00:20:00,
2013-04-28 17:30:00,58.6,37.9,29.97,WSW,251,18.0,18.0,46,0.00,,,0.00,0,Wunderground v.1.15,2013-04-29 00:30:00,
2013-04-28 17:40:00,58.3,38.1,29.97,WSW,249,18.0,18.0,47,0.00,,,0.00,0,Wunderground v.1.15,2013-04-29 00:40:00,
2013-04-28 17:50:00,58.1,38.5,29.97,SW,231,9.0,9.0,48,0.00,,,0.00,0,Wunderground v.1.15,2013-04-29 00:50:00,
2013-04-28 18:00:00,58.4,39.3,29.96,South,185,8.0,8.0,49,0.00,,,0.00,0,Wunderground v.1.15,2013-04-29 01:00:00,
2013-04-28 18:05:00,57.9,37.2,29.96,WSW,255,20.0,20.0,46,0.00,,,0.00,0,Wunderground v.1.15,2013-04-29 01:05:00,
2013-04-28 18:15:00,57.5,38.5,29.96,WSW,254,27.0,27.0,49,0.00,,,0.00,0,Wunderground v.1.15,2013-04-29 01:15:00,
2013-04-28 18:20:00,57.4,38.4,29.95,West,262,26.0,26.0,49,0.00,,,0.00,0,Wunderground v.1.15,2013-04-29 01:20:00,
2013-04-28 18:30:00,56.9,38.9,29.96,WSW,252,15.0,15.0,51,0.00,,,0.00,0,Wunderground v.1.15,2013-04-29 01:30:00,
2013-04-28 18:40:00,56.8,39.8,29.95,West,263,11.0,11.0,53,0.00,,,0.00,0,Wunderground v.1.15,2013-04-29 01:40:00,
2013-04-28 18:50:00,56.8,40.3,29.95,West,268,12.0,12.0,54,0.00,,,0.00,0,Wunderground v.1.15,2013-04-29 01:50:00,
2013-04-28 19:00:00,56.3,39.9,29.95,WSW,256,14.0,14.0,54,0.00,,,0.00,0,Wunderground v.1.15,2013-04-29 02:00:00,
2013-04-28 19:05:00,56.0,40.1,29.95,SW,219,10.0,14.0,55,0.00,,,0.00,0,Wunderground v.1.15,2013-04-29 02:05:00,
2013-04-28 19:10:00,56.0,40.1,29.95,West,262,18.0,18.0,55,0.00,,,0.00,0,Wunderground v.1.15,2013-04-29 02:10:00,
2013-04-28 19:20:00,55.5,39.6,29.95,WSW,242,8.0,8.0,55,0.00,,,0.00,0,Wunderground v.1.15,2013-04-29 02:20:00,
2013-04-28 19:30:00,54.5,40.0,29.95,ENE,69,6.0,6.0,58,0.00,,,0.00,0,Wunderground v.1.15,2013-04-29 02:30:00,
2013-04-28 19:40:00,54.0,40.4,29.95,West,278,9.0,9.0,60,0.00,,,0.00,0,Wunderground v.1.15,2013-04-29 02:40:00,
2013-04-28 19:50:00,53.4,40.3,29.95,WSW,250,8.0,8.0,61,0.00,,,0.00,0,Wunderground v.1.15,2013-04-29 02:50:00,
2013-04-28 20:00:00,53.1,40.0,29.95,West,266,8.0,8.0,61,0.00,,,0.00,0,Wunderground v.1.15,2013-04-29 03:00:00,
2013-04-28 20:10:00,52.4,40.6,29.94,WNW,295,10.0,10.0,64,0.00,,,0.00,0,Wunderground v.1.15,2013-04-29 03:10:00,
2013-04-28 20:20:00,52.0,40.6,29.94,NW,306,5.0,5.0,65,0.00,,,0.00,0,Wunderground v.1.15,2013-04-29 03:20:00,
2013-04-28 20:30:00,51.5,40.5,29.94,North,358,5.0,5.0,66,0.00,,,0.00,0,Wunderground v.1.15,2013-04-29 03:30:00,
2013-04-28 20:40:00,51.2,40.6,29.95,SW,233,4.0,4.0,67,0.00,,,0.00,0,Wunderground v.1.15,2013-04-29 03:40:00,
2013-04-28 20:50:00,51.2,39.8,29.95,West,275,2.0,4.0,65,0.00,,,0.00,0,Wunderground v.1.15,2013-04-29 03:50:00,
2013-04-28 21:00:00,51.1,39.3,29.95,NNW,346,6.0,6.0,64,0.00,,,0.00,0,Wunderground v.1.15,2013-04-29 04:00:00,
2013-04-28 21:05:00,51.1,39.3,29.95,NW,314,1.0,6.0,64,0.00,,,0.00,0,Wunderground v.1.15,2013-04-29 04:05:00,
2013-04-28 21:10:00,51.1,39.3,29.95,NW,320,2.0,4.0,64,0.00,,,0.00,0,Wunderground v.1.15,2013-04-29 04:10:00,
2013-04-28 21:15:00,51.0,39.2,29.95,WSW,247,5.0,5.0,64,0.00,,,0.00,0,Wunderground v.1.15,2013-04-29 04:15:00,
2013-04-28 21:20:00,50.5,39.6,29.95,WNW,286,2.0,4.0,66,0.00,,,0.00,0,Wunderground v.1.15,2013-04-29 04:20:00,
2013-04-28 21:25:00,50.2,39.7,29.94,West,269,3.0,4.0,67,0.00,,,0.00,0,Wunderground v.1.15,2013-04-29 04:25:00,
2013-04-28 21:30:00,49.8,40.0,29.95,WSW,256,3.0,4.0,69,0.00,,,0.00,0,Wunderground v.1.15,2013-04-29 04:30:00,
2013-04-28 21:40:00,49.8,38.9,29.94,NW,307,2.0,4.0,66,0.00,,,0.00,0,Wunderground v.1.15,2013-04-29 04:40:00,
2013-04-28 21:45:00,49.9,39.4,29.94,NNW,328,8.0,8.0,67,0.00,,,0.00,0,Wunderground v.1.15,2013-04-29 04:45:00,
2013-04-28 21:50:00,50.1,38.4,29.94,NNW,342,8.0,8.0,64,0.00,,,0.00,0,Wunderground v.1.15,2013-04-29 04:50:00,
2013-04-28 22:00:00,50.3,37.8,29.94,NNW,328,1.0,4.0,62,0.00,,,0.00,0,Wunderground v.1.15,2013-04-29 05:00:00,
2013-04-28 22:10:00,49.9,38.6,29.93,West,259,6.0,6.0,65,0.00,,,0.00,0,Wunderground v.1.15,2013-04-29 05:10:00,
2013-04-28 22:20:00,52.0,33.9,29.93,SW,231,5.0,5.0,50,0.00,,,0.00,0,Wunderground v.1.15,2013-04-29 05:20:00,
2013-04-28 22:30:00,52.5,33.9,29.93,WSW,249,9.0,9.0,49,0.00,,,0.00,0,Wunderground v.1.15,2013-04-29 05:30:00,
2013-04-28 22:40:00,52.6,34.5,29.93,WSW,257,5.0,5.0,50,0.00,,,0.00,0,Wunderground v.1.15,2013-04-29 05:40:00,
2013-04-28 22:50:00,52.4,35.8,29.92,West,275,3.0,4.0,53,0.00,,,0.00,0,Wunderground v.1.15,2013-04-29 05:50:00,
2013-04-28 23:00:00,52.1,36.9,29.92,WSW,249,14.0,14.0,56,0.00,,,0.00,0,Wunderground v.1.15,2013-04-29 06:00:00,
2013-04-28 23:05:00,52.4,38.0,29.92,WSW,240,7.0,14.0,58,0.00,,,0.00,0,Wunderground v.1.15,2013-04-29 06:05:00,
2013-04-28 23:10:00,52.3,38.8,29.92,WSW,240,18.0,18.0,60,0.00,,,0.00,0,Wunderground v.1.15,2013-04-29 06:10:00,
2013-04-28 23:20:00,51.7,39.5,29.91,WSW,246,9.0,9.0,63,0.00,,,0.00,0,Wunderground v.1.15,2013-04-29 06:20:00,
2013-04-28 23:30:00,51.2,41.0,29.91,WSW,238,18.0,18.0,68,0.00,,,0.00,0,Wunderground v.1.15,2013-04-29 06:30:00,
2013-04-28 23:40:00,50.8,41.7,29.92,SW,230,19.0,19.0,71,0.00,,,0.00,0,Wunderground v.1.15,2013-04-29 06:40:00,
2013-04-28 23:50:00,50.3,42.0,29.91,SW,226,21.0,21.0,73,0.00,,,0.00,0,Wunderground v.1.15,2013-04-29 06:50:00,